Bueche, Louisiana
Current Conditions -  °F | °C
As of 6:53 PM on Friday 24 Oct 2014 (Local Time) from KBTR Reporting Station
Clear Clear  
Wind Chill: 64°   Ceiling: Unl
Heat Index: 64°   Visibility: 10mi
Dew Point: 49°   Wind: 0mph
Humidity: 58%   Direction: NA
Pressure: 30.08"   Gusts: NA
Location:  30.57°N, 91.35°W
Report Text: KBTR 242353Z 00000KT 10SM CLR 18/09 A3008 RMK AO2 SLP185 T01780094 10250 20178 51008
Loading
Personal Weather Stations






























Interactive Weather Map
Tropical Storm Tracking
New forecast layout! Learn more

10-Day Weather Forecast

Advertisements
Track Severe Weather on mobile